Lafontaine, Canada
Current Conditions -  °F | °C
As of 6:00 AM on Saturday 25 Oct 2014 (Local Time) from CYMX Reporting Station
Few Clouds Few Clouds  
Wind Chill: 36°   Ceiling: Unl
Heat Index: 41°   Visibility: 25mi
Dew Point: 39°   Wind: 7mph
Humidity: 93%   Direction: 240°WSW
Pressure: 29.74"   Gusts: NA
Location:  45.8°N, 74.02°W
Report Text: CYMX 251000Z 24006KT 25SM FEW150 05/04 A2974 RMK AC1 SLP072
Loading
Personal Weather Stations






























Interactive Weather Map
Tropical Storm Tracking
New forecast layout! Learn more

10-Day Weather Forecast

Advertisements
Track Severe Weather on mobile